SABESACO

Guest
Details From SABE - Aeroparque Jorge Newbery
To SACO - AMBROSIO L V TARAVELLA
Flight Number -
Tags decoded
Created
Modified
Stats Distance 352 nm / 653 km
Max Altitude 0 ft / 0 m
Waypoints 3
Social Downloads 0
Likes 0
Share VATSIM

Download

Looking for another format? Having issues loading an existing format? Contact us
Advertisement - Login to hide

Notes

Requested: SABE AOTO UW5 CBA SACO Unmatched points: AOTO UW5

Route

SABE CBA SACO

ID Type Via Altitude Latitude Longitude Leg Dist Tot Dist Heading (true) Name
O SABE APT - 0 ft / 0 m -34.55941˚ -58.41575˚ - 0 nm - Aeroparque Jorge Newbery
CBA NDB - 0 ft / 0 m -31.30972˚ -64.21889˚ 351 nm 351 nm 302° / 305° CORDOBA NDB
O SACO APT - 0 ft / 0 m -31.31350˚ -64.20412˚ 0 nm 352 nm 107° / 107° AMBROSIO L V TARAVELLA

Altitude Profile

Advertisement - Login to hide

Weather


0- 5 10 15 20 25 30 35+ Temperature / ° C

Clouds and Precipitation
Forecast for 2017-12-18 06:00 UTC. Updated 10 minutes ago

Ground ~20,000 ft ~40,000 ft Winds

SABE

Details ICAO SABE (AEP)
Name Aeroparque Jorge Newbery
Region Argentina
Timezone Unknown (UTC+0.0)
Stats Elevation 17 ft / 5 m (AMSL)
Location -34.559414° -58.415749°
Runways 1
Magnetic Variation 8.982° W

METAR

SABE 18012013KT 9999 S039 18/08 Q1022

Decode

TAF

TAF SABE 172300Z 1800/1824 14010KT CAVOK TX25/1818Z TN15/1810Z BECMG 1803/1806 09010KT BECMG 1808/1811 07015KT 9999 FEW020 BECMG 1813/1815 10010KT CAVOK BECMG 1818/1820 09015KT

Decode

Departure Runways

ID Width Length Bearing (true) Bearing (mag) Surface Threshold Offset Overrun Length
13 131 ft / 40 m 6,882 ft / 2,098 m 123.87° 132.85° Concrete 0 ft / 0 m 791 ft / 241 m
31 131 ft / 40 m 6,882 ft / 2,098 m 303.86° 312.84° Concrete 991 ft / 302 m 0 ft / 0 m

SACO

Details ICAO SACO (COR)
Name AMBROSIO L V TARAVELLA
Region Argentina
Timezone America/Argentina/Cordoba (UTC-3.0)
Stats Elevation 1,604 ft / 489 m (AMSL)
Location -31.313499° -64.204123°
Runways 2
Magnetic Variation 5.559° W

METAR

SACO 180100Z AVOK 16/03 Q1023

Decode

TAF

TAF TAF SACO 172300Z 1800/1824 14010KT 9999 FEW035 TX29/1818Z TN13/1810Z BECMG 1806/1808 05010KT 9999 SCT030

Decode

Destination Runways

ID Width Length Bearing (true) Bearing (mag) Surface Threshold Offset Overrun Length
05 148 ft / 45 m 8,091 ft / 2,466 m 44.19° 49.75° Asphalt 840 ft / 256 m 0 ft / 0 m
18 148 ft / 45 m 10,441 ft / 3,182 m 179.75° 185.31° Concrete 0 ft / 0 m 0 ft / 0 m
23 148 ft / 45 m 8,091 ft / 2,466 m 224.18° 229.74° Asphalt 0 ft / 0 m 82 ft / 25 m
36 148 ft / 45 m 10,441 ft / 3,182 m 359.75° 5.31° Concrete 0 ft / 0 m 460 ft / 140 m

Approach Navaids

Runway Type Ident Frequency Range Bearing (true) Bearing (mag) Slope Elevation
18 Localiser CB 110.30 MHz 18 nm / 33 km 179.96° 185.52° - 1,604 ft / 489 m (AMSL)
18 Glidescope CB 110.30 MHz 10 nm / 19 km 179.75° 185.31° 2.50° 1,604 ft / 489 m (AMSL)
18 DME CB 110.30 MHz 18 nm / 33 km - - - 1,523 ft / 464 m (AMSL)

Popular Alternatives